createdAt,value
2022-12-29T00:00:10.336Z,28.00
2022-12-29T00:03:06.825Z,22.50
2022-12-29T00:05:40.801Z,20.10
2022-12-29T00:08:13.769Z,20.80
2022-12-29T00:10:46.604Z,18.30
2022-12-29T00:13:37.642Z,17.70
2022-12-29T00:16:11.584Z,18.50
2022-12-29T00:18:44.307Z,20.30
2022-12-29T00:21:40.771Z,13.90
2022-12-29T00:24:29.152Z,12.20
2022-12-29T00:27:25.763Z,14.40
2022-12-29T00:30:17.523Z,16.90
2022-12-29T00:33:09.171Z,16.40
2022-12-29T00:35:48.960Z,13.40
2022-12-29T00:38:41.780Z,15.30
2022-12-29T00:41:33.440Z,16.40
2022-12-29T00:44:08.134Z,14.30
2022-12-29T00:46:43.599Z,16.70
2022-12-29T00:49:35.733Z,17.50
2022-12-29T00:52:12.925Z,15.50
2022-12-29T00:54:46.227Z,16.70
2022-12-29T00:57:18.868Z,15.10
2022-12-29T00:59:51.508Z,12.90
2022-12-29T01:02:24.453Z,17.20
2022-12-29T01:04:57.205Z,14.30
2022-12-29T01:07:29.817Z,16.90
2022-12-29T01:10:16.178Z,13.80
2022-12-29T01:12:50.616Z,13.00
2022-12-29T01:15:23.749Z,13.40
2022-12-29T01:17:56.490Z,18.90
2022-12-29T01:20:30.177Z,19.60
2022-12-29T01:23:03.377Z,13.30
2022-12-29T01:25:36.045Z,14.40
2022-12-29T01:28:09.628Z,14.90
2022-12-29T01:30:42.302Z,13.60
2022-12-29T01:33:15.017Z,11.40
2022-12-29T01:35:47.662Z,16.10
2022-12-29T01:38:20.483Z,15.30
2022-12-29T01:40:53.208Z,15.50
2022-12-29T01:43:44.173Z,15.30
2022-12-29T01:46:31.274Z,4.80
2022-12-29T01:49:21.636Z,16.50
2022-12-29T01:52:09.345Z,16.40
2022-12-29T01:54:50.679Z,16.00
2022-12-29T01:57:33.093Z,9.90
2022-12-29T02:00:10.753Z,13.00
2022-12-29T02:02:50.761Z,17.90
2022-12-29T02:05:34.021Z,12.70
2022-12-29T02:08:06.957Z,13.80
2022-12-29T02:10:42.011Z,14.30
2022-12-29T02:13:14.760Z,16.80
2022-12-29T02:16:27.083Z,16.00
2022-12-29T02:19:26.832Z,16.50
2022-12-29T02:22:32.700Z,14.50
2022-12-29T02:25:04.949Z,14.50
2022-12-29T02:28:13.509Z,14.40
2022-12-29T02:30:59.498Z,15.50
2022-12-29T02:34:15.441Z,14.10
2022-12-29T02:36:53.915Z,16.90
2022-12-29T02:39:44.079Z,20.60
2022-12-29T02:43:00.183Z,16.80
2022-12-29T02:45:40.407Z,16.30
2022-12-29T02:48:32.776Z,15.80
2022-12-29T02:51:10.247Z,15.00
2022-12-29T02:54:07.275Z,15.40
2022-12-29T02:56:40.209Z,17.60
2022-12-29T02:59:14.859Z,14.10
2022-12-29T03:02:19.131Z,14.30
2022-12-29T03:05:20.422Z,12.60
2022-12-29T03:08:09.900Z,11.50
2022-12-29T03:11:05.011Z,13.50
2022-12-29T03:14:06.819Z,12.70
2022-12-29T03:19:45.628Z,10.80
2022-12-29T03:22:32.604Z,13.60
2022-12-29T03:25:33.136Z,14.70
2022-12-29T03:28:15.226Z,16.80
2022-12-29T03:30:50.672Z,12.30
2022-12-29T03:33:31.489Z,18.70
2022-12-29T03:36:10.126Z,34.90
2022-12-29T03:39:13.523Z,35.50
2022-12-29T03:41:49.240Z,46.10
2022-12-29T03:44:22.362Z,35.60
2022-12-29T03:46:55.227Z,23.40
2022-12-29T03:49:28.042Z,20.40
2022-12-29T03:52:00.731Z,17.00
2022-12-29T03:54:34.527Z,15.30
2022-12-29T03:57:07.752Z,16.70
2022-12-29T03:59:53.325Z,15.40
2022-12-29T04:02:26.722Z,14.20
2022-12-29T04:04:59.996Z,16.00
2022-12-29T04:07:33.688Z,10.60
2022-12-29T04:10:08.837Z,10.90
2022-12-29T04:12:43.180Z,13.90
2022-12-29T04:15:16.486Z,17.10
2022-12-29T04:17:51.372Z,15.60
2022-12-29T04:20:43.087Z,15.60
2022-12-29T04:23:16.259Z,12.80
2022-12-29T04:25:52.206Z,14.70
2022-12-29T04:28:25.225Z,18.70
2022-12-29T04:31:04.383Z,12.70
2022-12-29T04:33:44.241Z,18.00
2022-12-29T04:36:17.191Z,16.80
2022-12-29T04:38:51.847Z,20.50
2022-12-29T04:41:26.039Z,18.30
2022-12-29T04:43:59.943Z,17.20
2022-12-29T04:46:52.633Z,18.20
2022-12-29T04:49:50.770Z,18.60
2022-12-29T04:52:44.261Z,16.70
2022-12-29T04:55:19.795Z,15.90
2022-12-29T04:57:52.576Z,15.30
2022-12-29T05:00:26.628Z,16.20
2022-12-29T05:02:59.666Z,13.10
2022-12-29T05:05:33.479Z,13.50
2022-12-29T05:08:07.617Z,13.70
2022-12-29T05:10:41.312Z,16.50
2022-12-29T05:13:18.119Z,16.60
2022-12-29T05:15:55.922Z,16.10
2022-12-29T05:18:30.433Z,17.80
2022-12-29T05:21:05.407Z,19.90
2022-12-29T05:23:38.250Z,17.60
2022-12-29T05:26:12.252Z,16.00
2022-12-29T05:29:19.280Z,18.10
2022-12-29T05:31:52.874Z,21.00
2022-12-29T05:34:26.713Z,21.30
2022-12-29T05:37:00.073Z,22.50
2022-12-29T05:39:33.166Z,20.00
2022-12-29T05:42:08.701Z,24.90
2022-12-29T05:44:59.536Z,27.60
2022-12-29T05:48:00.485Z,23.60
2022-12-29T05:50:51.706Z,18.80
2022-12-29T05:53:32.245Z,20.80
2022-12-29T05:56:07.710Z,22.30
2022-12-29T05:58:41.187Z,25.00
2022-12-29T06:01:14.202Z,30.00
2022-12-29T06:03:48.608Z,30.90
2022-12-29T06:06:22.537Z,34.00
2022-12-29T06:08:55.974Z,33.90
2022-12-29T06:11:30.809Z,32.10
2022-12-29T06:14:05.235Z,28.10
2022-12-29T06:16:39.547Z,31.40
2022-12-29T06:19:16.342Z,31.90
2022-12-29T06:21:50.586Z,35.30
2022-12-29T06:24:24.173Z,36.60
2022-12-29T06:26:56.990Z,32.40
2022-12-29T06:29:30.417Z,40.60
2022-12-29T06:32:04.145Z,33.70
2022-12-29T06:34:39.598Z,47.70
2022-12-29T06:37:13.482Z,41.40
2022-12-29T06:39:47.199Z,34.40
2022-12-29T06:42:21.384Z,28.20
2022-12-29T06:45:30.462Z,25.50
2022-12-29T06:48:04.207Z,26.70
2022-12-29T06:50:37.433Z,33.40
2022-12-29T06:53:10.438Z,28.60
2022-12-29T06:55:44.562Z,29.20
2022-12-29T06:58:17.448Z,30.70
2022-12-29T07:00:51.066Z,27.90
2022-12-29T07:03:24.525Z,23.20
2022-12-29T07:05:59.696Z,31.10
2022-12-29T07:08:32.751Z,27.60
2022-12-29T07:11:06.010Z,26.60
2022-12-29T07:13:39.134Z,22.70
2022-12-29T07:16:12.676Z,22.80
2022-12-29T07:18:45.757Z,22.20
2022-12-29T07:21:19.230Z,24.90
2022-12-29T07:23:53.055Z,27.20
2022-12-29T07:26:26.867Z,24.10
2022-12-29T07:29:02.748Z,25.90
2022-12-29T07:31:36.046Z,28.30
2022-12-29T07:34:11.036Z,23.70
2022-12-29T07:36:44.392Z,24.80
2022-12-29T07:39:17.570Z,19.40
2022-12-29T07:41:50.808Z,23.10
2022-12-29T07:44:25.818Z,23.90
2022-12-29T07:47:20.552Z,22.90
2022-12-29T07:49:54.430Z,21.90
2022-12-29T07:52:27.688Z,21.90
2022-12-29T07:55:00.909Z,28.00
2022-12-29T07:57:34.251Z,34.30
2022-12-29T08:00:07.516Z,27.80
2022-12-29T08:02:45.512Z,29.10
2022-12-29T08:05:18.610Z,27.90
2022-12-29T08:07:51.900Z,28.10
2022-12-29T08:10:24.920Z,24.30
2022-12-29T08:12:58.396Z,28.50
2022-12-29T08:15:32.728Z,23.60
2022-12-29T08:18:07.605Z,24.20
2022-12-29T08:20:40.537Z,23.70
2022-12-29T08:23:13.895Z,30.10
2022-12-29T08:25:46.890Z,29.30
2022-12-29T08:28:19.723Z,25.50
2022-12-29T08:30:52.981Z,27.00
2022-12-29T08:33:25.611Z,25.70
2022-12-29T08:36:09.611Z,21.80
2022-12-29T08:38:42.606Z,21.00
2022-12-29T08:41:15.812Z,19.30
2022-12-29T08:43:52.404Z,18.70
2022-12-29T08:46:25.285Z,22.80
2022-12-29T08:49:00.629Z,18.10
2022-12-29T08:51:33.576Z,20.50
2022-12-29T08:54:06.407Z,22.10
2022-12-29T08:56:39.792Z,26.60
2022-12-29T08:59:12.699Z,25.20
2022-12-29T09:01:46.164Z,25.30
2022-12-29T09:04:19.060Z,23.00
2022-12-29T09:06:52.309Z,27.00
2022-12-29T09:09:25.833Z,21.70
2022-12-29T09:11:58.543Z,23.60
2022-12-29T09:14:31.508Z,24.80
2022-12-29T09:17:22.727Z,21.30
2022-12-29T09:19:55.734Z,22.90
2022-12-29T09:22:28.706Z,19.80
2022-12-29T09:25:01.478Z,22.60
2022-12-29T09:27:35.224Z,23.30
2022-12-29T09:30:10.039Z,21.70
2022-12-29T09:32:45.461Z,21.90
2022-12-29T09:35:19.928Z,20.80
2022-12-29T09:37:53.084Z,22.60
2022-12-29T09:40:36.512Z,26.60
2022-12-29T09:43:41.103Z,26.40
2022-12-29T09:46:32.184Z,23.70
2022-12-29T09:49:41.364Z,23.30
2022-12-29T09:52:36.995Z,28.40
2022-12-29T09:55:22.171Z,20.80
2022-12-29T09:58:06.929Z,21.20
2022-12-29T10:00:55.401Z,22.70
2022-12-29T10:03:39.222Z,20.70
2022-12-29T10:06:25.323Z,21.90
2022-12-29T10:09:33.957Z,23.60
2022-12-29T10:12:56.063Z,21.10
2022-12-29T10:15:56.781Z,21.30
2022-12-29T10:18:49.253Z,19.10
2022-12-29T10:21:36.269Z,24.20
2022-12-29T10:24:14.358Z,24.40
2022-12-29T10:26:49.535Z,23.50
2022-12-29T10:29:33.788Z,26.50
2022-12-29T10:32:36.146Z,20.20
2022-12-29T10:35:25.118Z,23.30
2022-12-29T10:38:19.008Z,25.70
2022-12-29T10:41:06.512Z,25.00
2022-12-29T10:43:50.597Z,27.50
2022-12-29T10:46:31.321Z,24.70
2022-12-29T10:49:04.840Z,24.00
2022-12-29T10:51:46.641Z,22.40
2022-12-29T10:54:54.361Z,27.40
2022-12-29T10:57:31.433Z,21.70
2022-12-29T11:00:06.032Z,28.00
2022-12-29T11:02:56.580Z,24.50
2022-12-29T11:05:36.599Z,24.00
2022-12-29T11:08:15.991Z,24.80
2022-12-29T11:11:01.002Z,24.20
2022-12-29T11:13:39.144Z,20.20
2022-12-29T11:16:15.831Z,20.50
2022-12-29T11:18:50.640Z,21.30
2022-12-29T11:21:41.846Z,22.10
2022-12-29T11:24:28.877Z,21.90
2022-12-29T11:27:34.674Z,20.60
2022-12-29T11:30:27.969Z,23.30
2022-12-29T11:33:06.027Z,22.40
2022-12-29T11:35:43.421Z,20.70
2022-12-29T11:38:37.148Z,19.70
2022-12-29T11:41:15.071Z,21.50
2022-12-29T11:43:48.935Z,25.40
2022-12-29T11:46:36.787Z,22.70
2022-12-29T11:49:16.024Z,20.90
2022-12-29T11:51:52.350Z,26.30
2022-12-29T11:54:39.692Z,20.40
2022-12-29T11:57:18.984Z,23.30
2022-12-29T11:59:56.741Z,25.90
2022-12-29T12:02:44.265Z,21.10
2022-12-29T12:05:54.353Z,20.10
2022-12-29T12:08:42.142Z,25.40
2022-12-29T12:11:38.741Z,24.40
2022-12-29T12:14:24.066Z,24.40
2022-12-29T12:17:39.052Z,24.10
2022-12-29T12:20:29.449Z,24.60
2022-12-29T12:23:35.170Z,26.20
2022-12-29T12:26:24.540Z,24.90
2022-12-29T12:29:00.051Z,26.00
2022-12-29T12:31:35.745Z,25.70
2022-12-29T12:34:14.322Z,23.70
2022-12-29T12:37:11.134Z,19.80
2022-12-29T12:40:01.973Z,21.60
2022-12-29T12:42:53.785Z,20.30
2022-12-29T12:45:41.708Z,27.70
2022-12-29T12:48:41.065Z,28.90
2022-12-29T12:51:32.988Z,29.90
2022-12-29T12:54:29.700Z,17.90
2022-12-29T12:57:04.581Z,27.60
2022-12-29T12:59:52.455Z,29.60
2022-12-29T13:02:46.900Z,25.90
2022-12-29T13:05:27.937Z,25.80
2022-12-29T13:08:29.883Z,26.50
2022-12-29T13:11:38.846Z,20.20
2022-12-29T13:14:35.029Z,19.10
2022-12-29T13:17:30.259Z,25.20
2022-12-29T13:20:20.639Z,25.60
2022-12-29T13:23:30.909Z,20.90
2022-12-29T13:26:10.375Z,23.90
2022-12-29T13:29:20.997Z,23.80
2022-12-29T13:31:58.977Z,24.80
2022-12-29T13:34:50.877Z,25.40
2022-12-29T13:37:29.867Z,22.70
2022-12-29T13:40:14.869Z,21.50
2022-12-29T13:42:50.184Z,30.00
2022-12-29T13:45:31.933Z,26.10
2022-12-29T13:48:10.087Z,27.70
2022-12-29T13:50:44.144Z,22.00
2022-12-29T13:53:16.725Z,25.30
2022-12-29T13:55:56.351Z,27.50
2022-12-29T13:58:41.998Z,33.40
2022-12-29T14:01:22.496Z,27.00
2022-12-29T14:03:58.136Z,26.30
2022-12-29T14:06:43.759Z,26.30
2022-12-29T14:09:36.978Z,30.70
2022-12-29T14:12:39.174Z,29.00
2022-12-29T14:15:14.483Z,30.80
2022-12-29T14:18:07.023Z,32.90
2022-12-29T14:20:40.533Z,35.40
2022-12-29T14:23:13.212Z,36.60
2022-12-29T14:26:02.255Z,31.80
2022-12-29T14:28:46.656Z,32.60
2022-12-29T14:31:22.835Z,31.90
2022-12-29T14:34:10.286Z,32.10
2022-12-29T14:37:06.441Z,34.40
2022-12-29T14:39:49.053Z,31.20
2022-12-29T14:42:27.058Z,27.70
2022-12-29T14:45:31.816Z,29.10
2022-12-29T14:48:25.110Z,27.30
2022-12-29T14:50:58.811Z,25.90
2022-12-29T14:53:47.078Z,23.20
2022-12-29T14:56:27.658Z,30.20
2022-12-29T14:59:05.523Z,30.70
2022-12-29T15:01:53.146Z,27.00
2022-12-29T15:04:38.526Z,39.30
2022-12-29T15:07:15.627Z,26.80
2022-12-29T15:09:58.178Z,35.40
2022-12-29T15:12:53.102Z,35.80
2022-12-29T15:15:31.251Z,37.50
2022-12-29T15:18:23.217Z,31.60
2022-12-29T15:20:59.806Z,29.60
2022-12-29T15:23:35.459Z,27.90
2022-12-29T15:26:10.808Z,25.60
2022-12-29T15:28:49.214Z,33.20
2022-12-29T15:31:30.583Z,28.50
2022-12-29T15:34:15.370Z,32.80
2022-12-29T15:36:52.843Z,30.80
2022-12-29T15:39:37.634Z,31.10
2022-12-29T15:42:38.940Z,32.40
2022-12-29T15:45:16.488Z,32.50
2022-12-29T15:47:52.590Z,35.40
2022-12-29T15:50:34.319Z,32.90
2022-12-29T15:53:12.768Z,26.80
2022-12-29T15:55:49.351Z,30.20
2022-12-29T15:58:32.018Z,27.90
2022-12-29T16:01:05.696Z,30.50
2022-12-29T16:03:40.619Z,27.70
2022-12-29T16:06:29.833Z,32.40
2022-12-29T16:09:05.341Z,35.20
2022-12-29T16:11:44.599Z,36.30
2022-12-29T16:14:32.595Z,34.50
2022-12-29T16:17:06.819Z,30.50
2022-12-29T16:19:44.259Z,31.10
2022-12-29T16:22:29.105Z,34.40
2022-12-29T16:25:13.933Z,33.20
2022-12-29T16:27:47.589Z,38.60
2022-12-29T16:30:35.054Z,36.50
2022-12-29T16:33:09.882Z,36.60
2022-12-29T16:35:46.042Z,39.00
2022-12-29T16:38:23.014Z,33.20
2022-12-29T16:41:05.566Z,35.60
2022-12-29T16:46:31.695Z,36.60
2022-12-29T16:49:04.863Z,34.40
2022-12-29T16:51:41.794Z,34.90
2022-12-29T16:54:41.999Z,32.30
2022-12-29T16:57:15.723Z,38.20
2022-12-29T16:59:54.669Z,39.00
2022-12-29T17:02:30.775Z,39.80
2022-12-29T17:05:04.458Z,44.00
2022-12-29T17:07:43.104Z,47.80
2022-12-29T17:10:17.071Z,43.10
2022-12-29T17:12:51.508Z,39.60
2022-12-29T17:15:35.697Z,38.80
2022-12-29T17:18:13.825Z,41.90
2022-12-29T17:20:47.625Z,39.50
2022-12-29T17:23:26.401Z,33.50
2022-12-29T17:26:02.118Z,31.00
2022-12-29T17:28:36.210Z,35.40
2022-12-29T17:31:11.412Z,38.10
2022-12-29T17:33:44.258Z,36.40
2022-12-29T17:36:17.369Z,36.80
2022-12-29T17:38:50.417Z,34.10
2022-12-29T17:41:23.744Z,35.20
2022-12-29T17:43:56.827Z,39.90
2022-12-29T17:46:29.864Z,36.30
2022-12-29T17:49:04.171Z,38.30
2022-12-29T17:51:37.390Z,45.60
2022-12-29T17:54:18.923Z,102.80
2022-12-29T17:56:51.987Z,63.80
2022-12-29T17:59:24.940Z,130.80
2022-12-29T18:01:58.465Z,69.00
2022-12-29T18:04:31.490Z,93.70
2022-12-29T18:07:04.294Z,108.90
2022-12-29T18:09:37.208Z,83.80
2022-12-29T18:12:26.775Z,84.30
2022-12-29T18:14:59.479Z,58.10
2022-12-29T18:17:32.234Z,42.30
2022-12-29T18:20:04.816Z,39.60
2022-12-29T18:22:37.838Z,37.00
2022-12-29T18:25:33.257Z,48.30
2022-12-29T18:28:05.872Z,42.30
2022-12-29T18:30:39.654Z,38.10
2022-12-29T18:33:26.220Z,40.20
2022-12-29T18:36:08.451Z,36.00
2022-12-29T18:38:41.045Z,49.00
2022-12-29T18:41:22.514Z,41.30
2022-12-29T18:43:55.509Z,39.20
2022-12-29T18:46:28.305Z,33.30
2022-12-29T18:49:01.089Z,32.10
2022-12-29T18:51:37.736Z,39.10
2022-12-29T18:54:27.439Z,38.40
2022-12-29T18:57:00.753Z,42.40
2022-12-29T18:59:34.162Z,45.10
2022-12-29T19:02:07.205Z,41.20
2022-12-29T19:04:39.925Z,38.10
2022-12-29T19:07:12.826Z,37.10
2022-12-29T19:09:45.386Z,39.30
2022-12-29T19:12:22.202Z,36.50
2022-12-29T19:14:59.212Z,37.20
2022-12-29T19:17:32.758Z,34.30
2022-12-29T19:20:05.761Z,34.10
2022-12-29T19:22:38.411Z,35.60
2022-12-29T19:25:11.450Z,34.70
2022-12-29T19:27:44.180Z,35.20
2022-12-29T19:30:17.335Z,35.30
2022-12-29T19:32:54.386Z,32.60
2022-12-29T19:35:29.426Z,29.50
2022-12-29T19:38:02.190Z,31.30
2022-12-29T19:40:35.563Z,31.30
2022-12-29T19:43:09.914Z,37.50
2022-12-29T19:45:46.681Z,36.00
2022-12-29T19:48:21.390Z,36.50
2022-12-29T19:50:54.767Z,38.30
2022-12-29T19:53:27.419Z,33.20
2022-12-29T19:56:03.920Z,39.00
2022-12-29T19:58:43.903Z,28.20
2022-12-29T20:01:24.556Z,35.70
2022-12-29T20:03:57.214Z,34.60
2022-12-29T20:06:30.287Z,37.70
2022-12-29T20:09:04.872Z,37.10
2022-12-29T20:11:38.154Z,32.50
2022-12-29T20:14:11.212Z,29.80
2022-12-29T20:17:08.959Z,32.50
2022-12-29T20:19:40.535Z,30.20
2022-12-29T20:22:13.883Z,34.00
2022-12-29T20:25:53.554Z,36.70
2022-12-29T20:27:41.851Z,37.90
2022-12-29T20:30:15.076Z,39.60
2022-12-29T20:32:48.038Z,43.00
2022-12-29T20:35:21.090Z,46.50
2022-12-29T20:37:54.160Z,46.40
2022-12-29T20:40:26.942Z,42.30
2022-12-29T20:43:00.697Z,42.30
2022-12-29T20:45:34.064Z,43.50
2022-12-29T20:48:07.085Z,41.10
2022-12-29T20:50:39.867Z,42.50
2022-12-29T20:53:14.027Z,38.00
2022-12-29T20:55:46.751Z,41.00
2022-12-29T20:58:23.956Z,36.70
2022-12-29T21:01:02.346Z,30.40
2022-12-29T21:03:35.422Z,26.60
2022-12-29T21:06:09.885Z,34.90
2022-12-29T21:08:42.927Z,35.70
2022-12-29T21:11:15.724Z,36.10
2022-12-29T21:13:48.523Z,31.40
2022-12-29T21:16:22.839Z,35.30
2022-12-29T21:18:55.852Z,31.90
2022-12-29T21:21:29.207Z,38.00
2022-12-29T21:24:06.573Z,35.50
2022-12-29T21:26:39.181Z,37.70
2022-12-29T21:29:12.205Z,34.20
2022-12-29T21:31:46.314Z,35.50
2022-12-29T21:34:19.180Z,39.10
2022-12-29T21:36:52.070Z,36.50
2022-12-29T21:39:25.220Z,44.30
2022-12-29T21:42:00.640Z,36.70
2022-12-29T21:44:51.452Z,35.70
2022-12-29T21:47:24.430Z,34.90
2022-12-29T21:49:57.499Z,33.60
2022-12-29T21:52:31.009Z,38.90
2022-12-29T21:55:05.425Z,41.00
2022-12-29T21:57:57.325Z,29.20
2022-12-29T22:00:48.880Z,34.10
2022-12-29T22:03:40.382Z,33.30
2022-12-29T22:06:32.809Z,30.70
2022-12-29T22:09:23.884Z,35.50
2022-12-29T22:12:15.399Z,35.80
2022-12-29T22:14:48.517Z,38.60
2022-12-29T22:17:26.259Z,38.30
2022-12-29T22:20:03.301Z,38.00
2022-12-29T22:22:36.841Z,39.00
2022-12-29T22:25:10.937Z,35.20
2022-12-29T22:27:44.072Z,42.50
2022-12-29T22:30:17.698Z,32.10
2022-12-29T22:32:50.596Z,35.50
2022-12-29T22:35:25.444Z,37.30
2022-12-29T22:37:59.017Z,31.50
2022-12-29T22:40:32.410Z,34.10
2022-12-29T22:43:11.083Z,34.10
2022-12-29T22:48:18.700Z,32.40
2022-12-29T22:50:52.465Z,36.60
2022-12-29T22:53:25.570Z,36.80
2022-12-29T22:56:13.167Z,33.70
2022-12-29T22:58:47.443Z,37.70
2022-12-29T23:01:23.074Z,38.00
2022-12-29T23:04:10.938Z,37.10
2022-12-29T23:06:50.662Z,39.70
2022-12-29T23:09:24.364Z,40.90
2022-12-29T23:11:57.026Z,26.50
2022-12-29T23:14:30.025Z,33.40
2022-12-29T23:17:03.102Z,39.30
2022-12-29T23:19:36.256Z,43.10
2022-12-29T23:22:09.347Z,35.30
2022-12-29T23:24:42.205Z,36.30
2022-12-29T23:27:15.224Z,32.70
2022-12-29T23:29:47.770Z,36.00
2022-12-29T23:32:21.288Z,38.80
2022-12-29T23:34:54.498Z,35.20
2022-12-29T23:37:27.699Z,39.30
2022-12-29T23:40:00.802Z,37.50
2022-12-29T23:42:33.701Z,39.70
2022-12-29T23:45:07.328Z,39.70
2022-12-29T23:47:40.169Z,37.00
2022-12-29T23:50:12.814Z,37.00
2022-12-29T23:52:45.362Z,38.60
2022-12-29T23:55:18.423Z,35.20
2022-12-29T23:57:51.291Z,40.00
